Time;durP1;ratioP1;P1;durP2;ratioP2;P2;SDS_P1;SDS_P2;PMS_P1;PMS_P2;Temp;Humidity;BMP_temperature;BMP_pressure;BME280_temperature;BME280_humidity;BME280_pressure;Samples;Min_cycle;Max_cycle;Signal;HPM_P1;HPM_P2
2022/12/24 00:02:41;;;;;;;;;;;21.60;70.30;;;;;;6250705;28;20333;-52
2022/12/24 00:05:43;;;;;;;;;;;21.00;69.90;;;;;;6250480;28;20348;-52
2022/12/24 00:08:44;;;;;;;;;;;21.20;69.90;;;;;;6250705;28;19921;-52
2022/12/24 00:11:45;;;;;;;;;;;21.20;70.00;;;;;;6250423;28;19928;-50
2022/12/24 00:14:47;;;;;;;;;;;21.20;70.20;;;;;;6250242;28;20365;-50
2022/12/24 00:17:48;;;;;;;;;;;22.00;70.60;;;;;;6250181;28;19932;-51
2022/12/24 00:20:50;;;;;;;;;;;20.80;69.10;;;;;;6250052;28;19971;-50
2022/12/24 00:23:52;;;;;;;;;;;21.10;70.10;;;;;;6250118;28;19928;-52
2022/12/24 00:26:53;;;;;;;;;;;21.40;70.30;;;;;;6250465;28;19921;-51
2022/12/24 00:29:54;;;;;;;;;;;21.50;70.40;;;;;;6250036;28;19921;-53
2022/12/24 00:32:56;;;;;;;;;;;21.50;70.30;;;;;;6250037;28;19928;-51
2022/12/24 00:35:58;;;;;;;;;;;21.30;69.40;;;;;;6250436;28;20321;-52
2022/12/24 00:38:59;;;;;;;;;;;21.10;70.00;;;;;;6250268;28;20002;-53
2022/12/24 00:42:00;;;;;;;;;;;21.10;70.20;;;;;;6249362;28;19928;-51
2022/12/24 00:45:01;;;;;;;;;;;21.20;70.20;;;;;;6248931;28;19955;-51
2022/12/24 00:48:03;;;;;;;;;;;21.80;70.50;;;;;;6249435;28;19974;-52
2022/12/24 00:51:05;;;;;;;;;;;21.40;69.60;;;;;;6249128;28;19921;-51
2022/12/24 00:54:06;;;;;;;;;;;21.40;70.40;;;;;;6249486;28;19924;-51
2022/12/24 00:57:07;;;;;;;;;;;21.10;70.00;;;;;;6249527;28;19921;-52
2022/12/24 01:00:09;;;;;;;;;;;21.50;70.30;;;;;;6249271;28;20019;-50
2022/12/24 01:03:10;;;;;;;;;;;21.20;70.10;;;;;;6249599;28;19921;-52
2022/12/24 01:06:14;;;;;;;;;;;21.10;70.20;;;;;;6249351;28;19921;-53
2022/12/24 01:09:15;;;;;;;;;;;21.20;70.20;;;;;;6249047;28;19925;-53
2022/12/24 01:12:16;;;;;;;;;;;21.10;70.10;;;;;;6249232;28;20292;-51
2022/12/24 01:15:18;;;;;;;;;;;21.30;70.20;;;;;;6249109;28;19979;-53
2022/12/24 01:18:19;;;;;;;;;;;21.80;70.60;;;;;;6248881;28;20369;-52
2022/12/24 01:21:21;;;;;;;;;;;21.20;69.60;;;;;;6247976;28;19921;-52
2022/12/24 01:24:23;;;;;;;;;;;20.90;69.90;;;;;;6249339;28;19975;-51
2022/12/24 01:27:24;;;;;;;;;;;21.30;70.30;;;;;;6248886;28;19971;-52
2022/12/24 01:30:25;;;;;;;;;;;21.00;70.20;;;;;;6249073;28;20020;-52
2022/12/24 01:33:27;;;;;;;;;;;21.20;69.30;;;;;;6248864;28;19921;-50
2022/12/24 01:36:29;;;;;;;;;;;21.20;69.90;;;;;;6248893;28;19955;-51
2022/12/24 01:39:30;;;;;;;;;;;21.00;70.00;;;;;;6249141;28;19952;-52
2022/12/24 01:45:49;;;;;;;;;;;21.10;70.20;;;;;;6248898;28;19963;-51
2022/12/24 01:48:52;;;;;;;;;;;21.30;70.10;;;;;;6247711;28;19921;-53
2022/12/24 01:51:57;;;;;;;;;;;21.10;70.00;;;;;;6248778;28;19928;-52
2022/12/24 01:55:00;;;;;;;;;;;21.10;70.00;;;;;;6247870;28;20392;-52
2022/12/24 01:58:02;;;;;;;;;;;21.10;70.00;;;;;;6248850;28;20293;-52
2022/12/24 02:01:03;;;;;;;;;;;20.90;69.90;;;;;;6247109;28;19920;-52
2022/12/24 02:04:11;;;;;;;;;;;21.50;70.30;;;;;;6248280;28;20281;-52
2022/12/24 02:07:12;;;;;;;;;;;21.00;70.00;;;;;;6248072;28;19975;-52
2022/12/24 02:10:14;;;;;;;;;;;21.10;69.90;;;;;;6248137;28;19925;-52
2022/12/24 02:13:18;;;;;;;;;;;21.00;69.90;;;;;;6248253;28;19931;-51
2022/12/24 02:16:24;;;;;;;;;;;21.10;70.00;;;;;;6247013;28;19925;-53
2022/12/24 02:19:39;;;;;;;;;;;21.90;71.10;;;;;;6248437;28;19928;-52
2022/12/24 02:22:54;;;;;;;;;;;21.10;69.90;;;;;;6248370;28;19921;-54
2022/12/24 02:26:07;;;;;;;;;;;21.10;69.90;;;;;;6248129;28;19921;-51
2022/12/24 02:29:18;;;;;;;;;;;21.20;70.00;;;;;;6248966;28;20019;-53
2022/12/24 02:32:22;;;;;;;;;;;21.00;70.00;;;;;;6248087;28;20369;-53
2022/12/24 02:35:28;;;;;;;;;;;21.20;69.50;;;;;;6248096;28;19925;-51
2022/12/24 02:38:31;;;;;;;;;;;21.00;69.70;;;;;;6248161;28;20323;-53
2022/12/24 02:44:52;;;;;;;;;;;21.10;70.00;;;;;;6232643;28;19921;-53
2022/12/24 02:47:54;;;;;;;;;;;21.60;70.30;;;;;;6246911;28;20346;-52
2022/12/24 02:50:57;;;;;;;;;;;21.80;70.50;;;;;;6248245;28;20258;-51
2022/12/24 02:53:58;;;;;;;;;;;21.20;70.10;;;;;;6246730;28;19929;-52
2022/12/24 02:57:06;;;;;;;;;;;21.10;70.30;;;;;;6247703;28;19921;-51
2022/12/24 03:00:08;;;;;;;;;;;21.50;70.30;;;;;;6248178;28;19964;-52
2022/12/24 03:03:18;;;;;;;;;;;20.90;69.90;;;;;;6247778;28;19925;-53
2022/12/24 03:06:23;;;;;;;;;;;21.40;70.20;;;;;;6247582;28;19921;-51
2022/12/24 03:09:27;;;;;;;;;;;21.00;69.90;;;;;;6251495;28;19921;-51
2022/12/24 03:12:31;;;;;;;;;;;21.20;70.10;;;;;;6250843;28;19921;-53
2022/12/24 03:15:33;;;;;;;;;;;20.90;69.90;;;;;;6251015;28;19960;-50
2022/12/24 03:18:37;;;;;;;;;;;21.20;70.10;;;;;;6252160;28;19964;-54
2022/12/24 03:21:41;;;;;;;;;;;21.90;70.60;;;;;;6250883;28;19932;-52
2022/12/24 03:24:42;;;;;;;;;;;21.20;70.20;;;;;;6251775;28;19925;-50
2022/12/24 03:27:44;;;;;;;;;;;20.90;70.10;;;;;;6251911;28;19928;-50
2022/12/24 03:30:47;;;;;;;;;;;21.50;70.30;;;;;;6251667;28;19944;-50
2022/12/24 03:33:49;;;;;;;;;;;21.20;69.50;;;;;;6251451;28;19964;-52
2022/12/24 03:36:50;;;;;;;;;;;21.40;70.40;;;;;;6251918;28;19921;-52
2022/12/24 03:39:52;;;;;;;;;;;21.30;70.40;;;;;;6251537;28;19921;-53
2022/12/24 03:42:53;;;;;;;;;;;21.00;69.90;;;;;;6250547;28;19921;-51
2022/12/24 03:45:54;;;;;;;;;;;20.90;70.10;;;;;;6251765;28;20376;-52
2022/12/24 03:48:57;;;;;;;;;;;21.40;70.40;;;;;;6251291;28;19921;-51
2022/12/24 03:51:58;;;;;;;;;;;21.90;70.50;;;;;;6251251;28;19965;-51
2022/12/24 03:55:00;;;;;;;;;;;21.50;70.00;;;;;;6251435;28;19928;-53
2022/12/24 03:58:01;;;;;;;;;;;20.90;70.00;;;;;;6251336;28;20316;-51
2022/12/24 04:01:02;;;;;;;;;;;21.20;70.20;;;;;;6251126;28;19921;-54
2022/12/24 04:04:04;;;;;;;;;;;21.00;70.10;;;;;;6251352;28;19925;-53
2022/12/24 04:07:06;;;;;;;;;;;21.10;69.90;;;;;;6251020;28;19921;-51
2022/12/24 04:10:08;;;;;;;;;;;21.00;70.00;;;;;;6250817;28;20288;-52
2022/12/24 04:13:09;;;;;;;;;;;21.50;70.30;;;;;;6251188;28;19927;-52
2022/12/24 04:16:12;;;;;;;;;;;21.00;70.20;;;;;;6250894;28;19952;-50
2022/12/24 04:19:14;;;;;;;;;;;21.20;70.20;;;;;;6249371;28;19920;-54
2022/12/24 04:22:15;;;;;;;;;;;21.80;70.50;;;;;;6250477;28;19928;-53
2022/12/24 04:25:17;;;;;;;;;;;21.00;69.80;;;;;;6250725;28;19952;-54
2022/12/24 04:28:18;;;;;;;;;;;21.20;70.30;;;;;;6250456;28;19928;-51
2022/12/24 04:31:19;;;;;;;;;;;21.00;70.20;;;;;;6250590;28;20468;-50
2022/12/24 04:34:22;;;;;;;;;;;21.30;69.60;;;;;;6250531;28;19921;-52
2022/12/24 04:37:23;;;;;;;;;;;21.30;70.10;;;;;;6250447;28;19921;-51
2022/12/24 04:40:24;;;;;;;;;;;21.00;70.20;;;;;;6250216;28;19921;-54
2022/12/24 04:43:26;;;;;;;;;;;21.10;70.30;;;;;;6250776;28;19928;-51
2022/12/24 04:46:29;;;;;;;;;;;21.00;70.00;;;;;;6250271;28;19921;-50
2022/12/24 04:49:31;;;;;;;;;;;21.50;70.20;;;;;;6249981;28;20377;-53
2022/12/24 04:52:33;;;;;;;;;;;21.40;68.80;;;;;;6250329;28;19928;-51
2022/12/24 04:55:34;;;;;;;;;;;20.80;69.90;;;;;;6248888;28;19952;-53
2022/12/24 04:58:36;;;;;;;;;;;20.80;70.20;;;;;;6250166;28;19924;-53
2022/12/24 05:01:37;;;;;;;;;;;21.00;70.10;;;;;;6250107;28;19921;-50
2022/12/24 05:04:39;;;;;;;;;;;20.90;70.20;;;;;;6249900;28;19921;-53
2022/12/24 05:07:40;;;;;;;;;;;21.40;70.40;;;;;;6249777;28;19921;-52
2022/12/24 05:10:42;;;;;;;;;;;21.30;70.40;;;;;;6250069;28;19921;-52
2022/12/24 05:13:43;;;;;;;;;;;21.30;70.40;;;;;;6249829;28;19921;-52
2022/12/24 05:16:48;;;;;;;;;;;21.00;69.90;;;;;;6249565;28;19924;-51
2022/12/24 05:19:50;;;;;;;;;;;21.30;70.30;;;;;;6249845;28;19921;-50
2022/12/24 05:29:29;;;;;;;;;;;21.00;70.10;;;;;;6248597;28;19925;-51
2022/12/24 05:32:30;;;;;;;;;;;21.30;70.40;;;;;;6248957;28;19921;-51
2022/12/24 05:35:32;;;;;;;;;;;21.10;69.50;;;;;;6249279;28;20388;-50
2022/12/24 05:38:34;;;;;;;;;;;21.40;70.40;;;;;;6249447;28;19921;-52
2022/12/24 05:41:35;;;;;;;;;;;20.90;70.10;;;;;;6249268;28;20281;-51
2022/12/24 05:44:36;;;;;;;;;;;20.80;70.20;;;;;;6249130;28;20435;-53
2022/12/24 05:47:37;;;;;;;;;;;21.50;70.50;;;;;;6249361;28;19928;-53
2022/12/24 05:50:45;;;;;;;;;;;21.20;70.20;;;;;;6249347;28;19921;-50
2022/12/24 05:53:46;;;;;;;;;;;20.70;69.80;;;;;;6248820;28;19921;-52
2022/12/24 05:56:48;;;;;;;;;;;21.50;70.10;;;;;;6248682;28;19921;-52
2022/12/24 05:59:49;;;;;;;;;;;21.00;69.90;;;;;;6248977;28;19960;-51
2022/12/24 06:02:50;;;;;;;;;;;20.90;69.90;;;;;;6248877;28;20011;-52
2022/12/24 06:05:57;;;;;;;;;;;21.00;69.30;;;;;;6248590;28;20002;-51
2022/12/24 06:08:59;;;;;;;;;;;21.00;69.90;;;;;;6248530;28;19924;-51
2022/12/24 06:12:01;;;;;;;;;;;20.90;70.10;;;;;;6248663;28;19928;-51
2022/12/24 06:15:02;;;;;;;;;;;20.90;70.00;;;;;;6248460;28;19921;-51
2022/12/24 06:18:03;;;;;;;;;;;20.90;69.90;;;;;;6248682;28;20391;-50
2022/12/24 06:21:05;;;;;;;;;;;20.90;69.90;;;;;;6248441;28;20451;-51
2022/12/24 06:24:07;;;;;;;;;;;21.00;69.90;;;;;;6248275;28;19921;-51
2022/12/24 06:27:08;;;;;;;;;;;21.60;70.10;;;;;;6248525;28;19925;-50
2022/12/24 06:30:10;;;;;;;;;;;21.10;70.10;;;;;;6248258;28;19928;-52
2022/12/24 06:33:11;;;;;;;;;;;20.90;69.80;;;;;;6248151;28;19921;-50
2022/12/24 06:36:17;;;;;;;;;;;21.20;69.50;;;;;;6248394;28;20281;-52
2022/12/24 06:39:19;;;;;;;;;;;21.00;70.00;;;;;;6248213;28;19925;-52
2022/12/24 06:42:20;;;;;;;;;;;21.10;70.10;;;;;;6247052;28;19970;-51
2022/12/24 06:45:22;;;;;;;;;;;21.30;70.20;;;;;;6248415;28;19985;-52
2022/12/24 06:48:23;;;;;;;;;;;21.30;70.10;;;;;;6247693;28;20315;-52
2022/12/24 06:51:25;;;;;;;;;;;20.90;70.00;;;;;;6247612;28;19920;-53
2022/12/24 06:54:26;;;;;;;;;;;21.60;70.30;;;;;;6248085;28;19928;-52
2022/12/24 06:57:27;;;;;;;;;;;21.40;70.20;;;;;;6247903;28;19921;-52
2022/12/24 07:00:29;;;;;;;;;;;21.00;69.90;;;;;;6247664;28;20376;-51
2022/12/24 07:03:31;;;;;;;;;;;20.80;69.90;;;;;;6247950;28;20377;-51
2022/12/24 07:06:33;;;;;;;;;;;21.40;69.90;;;;;;6246413;28;19921;-53
2022/12/24 07:09:34;;;;;;;;;;;20.90;69.80;;;;;;6247296;28;19971;-53
2022/12/24 07:12:35;;;;;;;;;;;21.00;70.10;;;;;;6247762;28;19921;-52
2022/12/24 07:15:37;;;;;;;;;;;21.80;70.50;;;;;;6247435;28;20074;-52
2022/12/24 07:18:38;;;;;;;;;;;21.30;70.00;;;;;;6247438;28;19956;-52
2022/12/24 07:21:40;;;;;;;;;;;21.10;70.00;;;;;;6247755;28;20335;-51
2022/12/24 07:24:41;;;;;;;;;;;21.30;70.10;;;;;;6247328;28;19928;-51
2022/12/24 07:27:42;;;;;;;;;;;21.20;70.20;;;;;;6247138;28;20355;-52
2022/12/24 07:30:44;;;;;;;;;;;21.20;70.10;;;;;;6247491;28;19992;-50
2022/12/24 07:33:45;;;;;;;;;;;21.20;69.50;;;;;;6247161;28;20343;-50
2022/12/24 07:36:47;;;;;;;;;;;21.30;70.20;;;;;;6248148;28;19921;-52
2022/12/24 07:39:49;;;;;;;;;;;21.20;69.40;;;;;;6247507;28;20007;-51
2022/12/24 07:42:50;;;;;;;;;;;21.00;70.10;;;;;;6247067;28;19975;-50
2022/12/24 07:45:53;;;;;;;;;;;21.00;70.00;;;;;;6247021;28;19921;-51
2022/12/24 07:48:54;;;;;;;;;;;21.40;70.00;;;;;;6247217;28;20348;-50
2022/12/24 07:51:56;;;;;;;;;;;21.70;70.60;;;;;;6246989;28;19921;-52
2022/12/24 07:54:57;;;;;;;;;;;21.30;70.10;;;;;;6249744;28;19929;-52
2022/12/24 07:57:59;;;;;;;;;;;21.60;70.40;;;;;;6251466;28;19921;-53
2022/12/24 08:01:00;;;;;;;;;;;21.30;70.20;;;;;;6251534;28;19928;-51
2022/12/24 08:04:02;;;;;;;;;;;21.30;70.20;;;;;;6250996;28;19921;-52
2022/12/24 08:07:04;;;;;;;;;;;21.30;70.10;;;;;;6251304;28;19921;-51
2022/12/24 08:10:06;;;;;;;;;;;21.70;70.30;;;;;;6250945;28;19967;-52
2022/12/24 08:13:07;;;;;;;;;;;20.90;69.80;;;;;;6249703;28;19964;-51
2022/12/24 08:16:09;;;;;;;;;;;20.90;69.80;;;;;;6251107;28;19924;-51
2022/12/24 08:19:10;;;;;;;;;;;21.40;70.40;;;;;;6251194;28;19927;-51
2022/12/24 08:22:12;;;;;;;;;;;21.80;70.50;;;;;;6250687;28;19997;-52
2022/12/24 08:25:13;;;;;;;;;;;21.30;70.10;;;;;;6250944;28;19921;-52
2022/12/24 08:28:15;;;;;;;;;;;21.20;70.10;;;;;;6250559;28;19971;-51
2022/12/24 08:31:17;;;;;;;;;;;21.00;69.90;;;;;;6250487;28;20373;-52
2022/12/24 08:34:18;;;;;;;;;;;21.20;69.30;;;;;;6250265;28;19921;-53
2022/12/24 08:37:20;;;;;;;;;;;21.00;69.70;;;;;;6250513;28;19928;-50
2022/12/24 08:40:22;;;;;;;;;;;21.00;69.90;;;;;;6250843;28;19925;-53
2022/12/24 08:43:24;;;;;;;;;;;21.10;69.90;;;;;;6250078;28;20423;-53
2022/12/24 08:46:25;;;;;;;;;;;21.50;70.00;;;;;;6250391;28;19970;-52
2022/12/24 08:49:27;;;;;;;;;;;21.00;69.20;;;;;;6248848;28;19927;-52
2022/12/24 08:52:29;;;;;;;;;;;20.90;70.00;;;;;;6249892;28;19971;-51
2022/12/24 08:55:30;;;;;;;;;;;21.00;69.80;;;;;;6250393;28;20305;-50
2022/12/24 08:58:31;;;;;;;;;;;21.60;70.30;;;;;;6250034;28;20377;-52
2022/12/24 09:01:33;;;;;;;;;;;21.00;69.60;;;;;;6249751;28;19921;-49
2022/12/24 09:04:38;;;;;;;;;;;20.90;70.60;;;;;;6249719;28;19921;-53
2022/12/24 09:07:40;;;;;;;;;;;21.50;70.20;;;;;;6249499;28;19971;-52
2022/12/24 09:10:41;;;;;;;;;;;21.60;70.20;;;;;;6250030;28;19921;-51
2022/12/24 09:13:43;;;;;;;;;;;21.40;70.10;;;;;;6250276;28;20280;-50
2022/12/24 09:16:44;;;;;;;;;;;21.10;70.00;;;;;;6249767;28;19921;-53
2022/12/24 09:19:46;;;;;;;;;;;21.20;70.20;;;;;;6249522;28;20027;-53
2022/12/24 09:22:48;;;;;;;;;;;21.80;70.40;;;;;;6249807;28;19928;-50
2022/12/24 09:25:49;;;;;;;;;;;21.00;69.90;;;;;;6249584;28;19983;-51
2022/12/24 09:28:51;;;;;;;;;;;21.30;70.30;;;;;;6249630;28;20381;-51
2022/12/24 09:31:53;;;;;;;;;;;21.30;70.10;;;;;;6249537;28;19921;-51
2022/12/24 09:34:55;;;;;;;;;;;21.20;69.60;;;;;;6249179;28;19952;-52
2022/12/24 09:38:01;;;;;;;;;;;21.20;70.20;;;;;;6249192;28;19925;-53
2022/12/24 09:41:10;;;;;;;;;;;21.20;70.00;;;;;;6249486;28;19938;-51
2022/12/24 09:44:19;;;;;;;;;;;21.10;69.90;;;;;;6249010;28;19959;-49
2022/12/24 09:47:24;;;;;;;;;;;21.90;70.20;;;;;;6249064;28;20349;-54
2022/12/24 09:50:28;;;;;;;;;;;20.70;69.70;;;;;;6248038;28;19925;-51
2022/12/24 09:53:34;;;;;;;;;;;21.90;70.30;;;;;;6247710;28;19925;-52
2022/12/24 09:56:38;;;;;;;;;;;21.20;70.10;;;;;;6248882;28;20283;-52
2022/12/24 09:59:40;;;;;;;;;;;21.80;70.20;;;;;;6249137;28;19979;-51
2022/12/24 10:02:42;;;;;;;;;;;21.20;69.30;;;;;;6248709;28;19921;-52
2022/12/24 10:05:47;;;;;;;;;;;20.90;69.90;;;;;;6248691;28;20023;-50
2022/12/24 10:08:56;;;;;;;;;;;21.50;70.10;;;;;;6248992;28;19921;-51
2022/12/24 10:12:01;;;;;;;;;;;21.80;70.20;;;;;;6247307;28;20377;-53
2022/12/24 10:15:09;;;;;;;;;;;21.40;69.90;;;;;;6248535;28;19921;-51
2022/12/24 10:18:18;;;;;;;;;;;21.70;70.20;;;;;;6248398;28;19921;-53
2022/12/24 10:21:23;;;;;;;;;;;21.30;69.70;;;;;;6248682;28;19925;-51
2022/12/24 10:24:29;;;;;;;;;;;21.90;70.30;;;;;;6248475;28;19921;-53
2022/12/24 10:27:34;;;;;;;;;;;21.40;70.10;;;;;;6248246;28;19921;-52
2022/12/24 10:30:35;;;;;;;;;;;21.40;70.10;;;;;;6247030;28;19928;-52
2022/12/24 10:33:39;;;;;;;;;;;21.20;69.20;;;;;;6248108;28;19921;-51
2022/12/24 10:36:41;;;;;;;;;;;21.50;70.00;;;;;;6248834;28;19975;-50
2022/12/24 10:39:42;;;;;;;;;;;21.40;69.50;;;;;;6248654;28;20409;-52
2022/12/24 10:42:44;;;;;;;;;;;21.50;70.10;;;;;;6248028;28;19964;-50
2022/12/24 10:45:54;;;;;;;;;;;21.30;70.00;;;;;;6247931;28;19921;-50
2022/12/24 10:48:58;;;;;;;;;;;21.40;69.90;;;;;;6246773;28;19929;-52
2022/12/24 10:52:01;;;;;;;;;;;21.50;69.90;;;;;;6248261;28;19928;-53
2022/12/24 10:55:05;;;;;;;;;;;21.60;70.00;;;;;;6246698;28;19921;-51
2022/12/24 10:58:19;;;;;;;;;;;21.30;69.80;;;;;;6246675;28;19929;-50
2022/12/24 11:01:20;;;;;;;;;;;21.00;69.80;;;;;;6247931;28;20372;-51
2022/12/24 11:04:23;;;;;;;;;;;20.90;69.70;;;;;;6247743;28;19964;-52
2022/12/24 11:07:24;;;;;;;;;;;21.80;70.00;;;;;;6248542;28;19921;-53
2022/12/24 11:10:26;;;;;;;;;;;21.50;70.00;;;;;;6247731;28;20376;-53
2022/12/24 11:13:29;;;;;;;;;;;20.90;69.50;;;;;;6247549;28;20027;-51
2022/12/24 11:16:39;;;;;;;;;;;21.50;69.90;;;;;;6246401;28;19932;-53
2022/12/24 11:19:46;;;;;;;;;;;22.00;70.30;;;;;;6247689;28;19928;-52
2022/12/24 11:22:48;;;;;;;;;;;21.20;69.70;;;;;;6247538;28;19928;-53
2022/12/24 11:25:51;;;;;;;;;;;21.10;69.60;;;;;;6247318;28;19971;-53
2022/12/24 11:29:07;;;;;;;;;;;21.10;69.50;;;;;;6248892;28;19987;-53
2022/12/24 11:32:10;;;;;;;;;;;22.00;70.00;;;;;;6251311;28;19921;-52
2022/12/24 11:35:14;;;;;;;;;;;21.30;69.10;;;;;;6250402;28;20319;-52
2022/12/24 11:38:18;;;;;;;;;;;21.10;69.40;;;;;;6250393;28;19956;-52
2022/12/24 11:41:21;;;;;;;;;;;21.00;69.50;;;;;;6251524;28;20343;-52
2022/12/24 11:44:24;;;;;;;;;;;21.90;70.10;;;;;;6251572;28;19928;-51
2022/12/24 11:47:34;;;;;;;;;;;21.30;69.50;;;;;;6250253;28;19921;-52
2022/12/24 11:50:35;;;;;;;;;;;21.10;69.40;;;;;;6251276;28;20392;-51
2022/12/24 11:53:40;;;;;;;;;;;21.30;69.70;;;;;;6251340;28;20388;-52
2022/12/24 11:56:45;;;;;;;;;;;21.90;70.10;;;;;;6251546;28;20294;-52
2022/12/24 11:59:47;;;;;;;;;;;21.60;69.90;;;;;;6251242;28;19921;-51
2022/12/24 12:02:50;;;;;;;;;;;21.20;69.60;;;;;;6251134;28;19921;-52
2022/12/24 12:05:53;;;;;;;;;;;21.50;69.70;;;;;;6250902;28;20380;-54
2022/12/24 12:08:57;;;;;;;;;;;22.00;70.00;;;;;;6251054;28;20296;-51
2022/12/24 12:12:01;;;;;;;;;;;21.00;69.30;;;;;;6250883;28;19921;-52
2022/12/24 12:15:04;;;;;;;;;;;21.00;69.50;;;;;;6250738;28;19952;-52
2022/12/24 12:18:08;;;;;;;;;;;21.30;69.70;;;;;;6251002;28;19921;-50
2022/12/24 12:21:11;;;;;;;;;;;21.90;70.00;;;;;;6250665;28;19971;-54
2022/12/24 12:24:15;;;;;;;;;;;21.40;69.60;;;;;;6249827;28;19921;-51
2022/12/24 12:27:20;;;;;;;;;;;21.40;69.60;;;;;;6250814;28;20285;-51
2022/12/24 12:30:23;;;;;;;;;;;21.30;69.40;;;;;;6250558;28;19921;-51
2022/12/24 12:33:27;;;;;;;;;;;21.30;69.20;;;;;;6250336;28;19921;-52
2022/12/24 12:36:31;;;;;;;;;;;21.30;69.60;;;;;;6251295;28;19944;-51
2022/12/24 12:39:33;;;;;;;;;;;21.10;69.50;;;;;;6249899;28;19921;-53
2022/12/24 12:42:37;;;;;;;;;;;21.30;69.50;;;;;;6250045;28;19928;-52
2022/12/24 12:45:42;;;;;;;;;;;21.60;69.60;;;;;;6250620;28;20023;-53
2022/12/24 12:48:54;;;;;;;;;;;21.20;69.40;;;;;;6249472;28;20280;-52
2022/12/24 12:52:08;;;;;;;;;;;21.10;69.30;;;;;;6250139;28;19921;-52
2022/12/24 12:55:17;;;;;;;;;;;21.00;69.40;;;;;;6250286;28;20347;-52
2022/12/24 12:58:29;;;;;;;;;;;21.10;69.40;;;;;;6249999;28;20007;-53
2022/12/24 13:01:39;;;;;;;;;;;21.50;69.70;;;;;;6250270;28;19960;-52
2022/12/24 13:04:49;;;;;;;;;;;22.00;69.90;;;;;;6249896;28;19925;-52
2022/12/24 13:08:00;;;;;;;;;;;21.50;69.40;;;;;;6250899;28;19921;-51
2022/12/24 13:11:12;;;;;;;;;;;21.50;69.30;;;;;;6249941;28;20011;-51
2022/12/24 13:14:23;;;;;;;;;;;21.60;69.40;;;;;;6249734;28;19944;-51
2022/12/24 13:17:41;;;;;;;;;;;21.90;69.40;;;;;;6249743;28;20082;-53
2022/12/24 13:20:46;;;;;;;;;;;21.30;69.10;;;;;;6249571;28;20145;-52
2022/12/24 13:23:47;;;;;;;;;;;21.30;69.10;;;;;;6248736;28;20323;-51
2022/12/24 13:27:05;;;;;;;;;;;21.20;69.30;;;;;;6249606;28;20012;-53
2022/12/24 13:30:30;;;;;;;;;;;21.70;69.40;;;;;;6249244;28;19921;-51
2022/12/24 13:33:46;;;;;;;;;;;21.40;68.70;;;;;;6249410;28;19921;-51
2022/12/24 13:37:02;;;;;;;;;;;21.00;68.90;;;;;;6248262;28;19921;-52
2022/12/24 13:40:19;;;;;;;;;;;21.20;69.10;;;;;;6249230;28;19944;-53
2022/12/24 13:43:20;;;;;;;;;;;22.20;69.70;;;;;;6249408;28;19929;-53
2022/12/24 13:46:36;;;;;;;;;;;21.40;69.10;;;;;;6248012;28;19920;-53
2022/12/24 13:49:40;;;;;;;;;;;21.20;69.10;;;;;;6247847;28;20044;-51
2022/12/24 13:52:49;;;;;;;;;;;21.60;69.30;;;;;;6249038;28;20384;-50
2022/12/24 13:55:50;;;;;;;;;;;22.00;69.40;;;;;;6248925;28;19921;-52
2022/12/24 13:58:55;;;;;;;;;;;21.60;69.20;;;;;;6249055;28;20277;-50
2022/12/24 14:01:56;;;;;;;;;;;21.30;69.10;;;;;;6248818;28;20396;-51
2022/12/24 14:05:01;;;;;;;;;;;21.70;69.60;;;;;;6249103;28;20285;-51
2022/12/24 14:08:04;;;;;;;;;;;22.30;69.60;;;;;;6248746;28;19928;-51
2022/12/24 14:11:08;;;;;;;;;;;21.70;69.20;;;;;;6248624;28;19921;-51
2022/12/24 14:14:24;;;;;;;;;;;21.20;68.90;;;;;;6247295;28;19925;-52
2022/12/24 14:17:28;;;;;;;;;;;21.80;69.20;;;;;;6248749;28;19928;-53
2022/12/24 14:20:31;;;;;;;;;;;22.00;69.50;;;;;;6248514;28;19944;-53
2022/12/24 14:23:37;;;;;;;;;;;21.70;69.20;;;;;;6248308;28;20280;-52
2022/12/24 14:26:43;;;;;;;;;;;21.40;69.10;;;;;;6248579;28;20277;-51
2022/12/24 14:29:48;;;;;;;;;;;21.40;68.80;;;;;;6248347;28;19921;-51
2022/12/24 14:32:50;;;;;;;;;;;22.10;69.30;;;;;;6248179;28;19921;-53
2022/12/24 14:35:52;;;;;;;;;;;21.70;68.60;;;;;;6248602;28;19928;-52
2022/12/24 14:38:54;;;;;;;;;;;21.30;69.00;;;;;;6248242;28;19921;-51
2022/12/24 14:42:02;;;;;;;;;;;21.80;69.40;;;;;;6248045;28;20007;-52
2022/12/24 14:45:07;;;;;;;;;;;22.30;69.50;;;;;;6248592;28;19944;-53
2022/12/24 14:48:12;;;;;;;;;;;21.30;68.90;;;;;;6248013;28;19991;-49
2022/12/24 14:51:18;;;;;;;;;;;21.30;68.90;;;;;;6247894;28;20014;-52
2022/12/24 14:54:30;;;;;;;;;;;21.30;69.00;;;;;;6248259;28;19921;-51
2022/12/24 14:57:31;;;;;;;;;;;22.20;69.30;;;;;;6247770;28;19928;-48
2022/12/24 15:00:33;;;;;;;;;;;21.60;68.90;;;;;;6247858;28;20395;-54
2022/12/24 15:03:40;;;;;;;;;;;21.50;69.10;;;;;;6246780;28;20296;-53
2022/12/24 15:06:46;;;;;;;;;;;21.40;69.10;;;;;;6247995;28;20266;-52
2022/12/24 15:09:48;;;;;;;;;;;21.80;69.20;;;;;;6247878;28;19928;-51
2022/12/24 15:12:49;;;;;;;;;;;21.70;69.20;;;;;;6247536;28;19951;-53
2022/12/24 15:15:51;;;;;;;;;;;21.40;69.10;;;;;;6247700;28;19955;-51
2022/12/24 15:18:55;;;;;;;;;;;21.40;69.00;;;;;;6246384;28;19942;-52
2022/12/24 15:21:57;;;;;;;;;;;22.20;69.60;;;;;;6246352;28;19999;-49
2022/12/24 15:24:58;;;;;;;;;;;21.70;69.20;;;;;;6247594;28;19921;-52
2022/12/24 15:28:00;;;;;;;;;;;21.50;69.30;;;;;;6247446;28;19936;-53
2022/12/24 15:31:03;;;;;;;;;;;21.20;69.10;;;;;;6247151;28;19975;-52
2022/12/24 15:34:05;;;;;;;;;;;21.50;68.60;;;;;;6246057;28;20439;-51
2022/12/24 15:37:11;;;;;;;;;;;21.70;69.20;;;;;;6247323;28;19921;-52
2022/12/24 15:40:23;;;;;;;;;;;21.80;69.40;;;;;;6246992;28;19928;-52
2022/12/24 15:43:25;;;;;;;;;;;21.60;69.10;;;;;;6246023;28;20027;-53
2022/12/24 15:46:28;;;;;;;;;;;21.90;69.10;;;;;;6247322;28;20364;-49
2022/12/24 15:49:30;;;;;;;;;;;21.30;69.10;;;;;;6246926;28;19921;-52
2022/12/24 15:52:38;;;;;;;;;;;21.20;69.10;;;;;;6247265;28;19925;-52
2022/12/24 15:55:40;;;;;;;;;;;21.20;69.10;;;;;;6247376;28;20015;-52
2022/12/24 15:58:43;;;;;;;;;;;21.70;69.30;;;;;;6246899;28;20379;-51
2022/12/24 16:01:45;;;;;;;;;;;21.30;69.10;;;;;;6247127;28;19925;-53
2022/12/24 16:04:47;;;;;;;;;;;21.20;68.80;;;;;;6245568;28;19972;-52
2022/12/24 16:08:06;;;;;;;;;;;21.30;69.10;;;;;;6246737;28;20377;-52
2022/12/24 16:11:09;;;;;;;;;;;21.90;69.40;;;;;;6247009;28;19921;-53
2022/12/24 16:14:12;;;;;;;;;;;21.70;69.10;;;;;;6247130;28;19929;-52
2022/12/24 16:17:17;;;;;;;;;;;21.40;68.50;;;;;;6250824;28;20270;-49
2022/12/24 16:20:20;;;;;;;;;;;21.70;69.10;;;;;;6251020;28;19984;-51
2022/12/24 16:23:22;;;;;;;;;;;21.50;68.50;;;;;;6249508;28;19983;-51
2022/12/24 16:26:24;;;;;;;;;;;21.50;69.00;;;;;;6249274;28;20400;-51
2022/12/24 16:29:26;;;;;;;;;;;21.50;68.60;;;;;;6250340;28;19921;-52
2022/12/24 16:32:31;;;;;;;;;;;21.50;69.20;;;;;;6250784;28;19921;-51
2022/12/24 16:35:35;;;;;;;;;;;21.40;68.40;;;;;;6249136;28;20439;-49
2022/12/24 16:39:21;;;;;;;;;;;21.50;68.60;;;;;;6250392;28;19920;-53
2022/12/24 16:45:16;;;;;;;;;;;21.40;68.60;;;;;;6248691;28;19921;-49
2022/12/24 16:48:19;;;;;;;;;;;21.90;69.40;;;;;;6250032;28;20284;-50
2022/12/24 16:51:20;;;;;;;;;;;21.30;69.00;;;;;;6250441;28;20373;-51
2022/12/24 16:54:21;;;;;;;;;;;21.00;69.10;;;;;;6250202;28;19944;-51
2022/12/24 16:57:24;;;;;;;;;;;21.50;69.20;;;;;;6250840;28;20297;-52
2022/12/24 17:00:25;;;;;;;;;;;21.80;69.40;;;;;;6250335;28;19940;-49
2022/12/24 17:03:26;;;;;;;;;;;21.30;69.10;;;;;;6250071;28;20357;-53
2022/12/24 17:06:28;;;;;;;;;;;21.10;69.10;;;;;;6249950;28;19921;-52
2022/12/24 17:09:29;;;;;;;;;;;21.30;69.20;;;;;;6250116;28;19928;-51
2022/12/24 17:12:31;;;;;;;;;;;21.50;68.60;;;;;;6249904;28;19975;-52
2022/12/24 17:15:32;;;;;;;;;;;21.20;69.20;;;;;;6249737;28;19928;-52
2022/12/24 17:18:34;;;;;;;;;;;21.10;69.10;;;;;;6250059;28;19921;-51
2022/12/24 17:21:35;;;;;;;;;;;21.90;69.60;;;;;;6249786;28;20301;-51
2022/12/24 17:24:37;;;;;;;;;;;21.10;68.90;;;;;;6248696;28;20363;-50
2022/12/24 17:27:39;;;;;;;;;;;21.40;69.40;;;;;;6249198;28;19928;-54
2022/12/24 17:30:40;;;;;;;;;;;21.90;69.60;;;;;;6249489;28;19980;-53
2022/12/24 17:33:42;;;;;;;;;;;21.30;68.60;;;;;;6249127;28;20420;-51
2022/12/24 17:36:43;;;;;;;;;;;21.10;69.00;;;;;;6249462;28;19921;-51
2022/12/24 17:39:45;;;;;;;;;;;21.20;69.20;;;;;;6249389;28;20003;-51
2022/12/24 17:42:46;;;;;;;;;;;21.00;69.10;;;;;;6249196;28;19921;-53
2022/12/24 17:45:48;;;;;;;;;;;21.20;69.30;;;;;;6248996;28;20377;-52
2022/12/24 17:48:50;;;;;;;;;;;21.90;69.60;;;;;;6249215;28;20349;-52
2022/12/24 17:51:52;;;;;;;;;;;21.00;69.00;;;;;;6248982;28;19964;-53
2022/12/24 17:54:53;;;;;;;;;;;21.20;68.60;;;;;;6248785;28;19921;-52
2022/12/24 17:57:55;;;;;;;;;;;21.10;69.20;;;;;;6249083;28;19971;-51
2022/12/24 18:00:57;;;;;;;;;;;21.10;69.20;;;;;;6248943;28;20324;-51
2022/12/24 18:03:59;;;;;;;;;;;21.60;69.30;;;;;;6248686;28;19927;-53